Maria Del Carmen IV — HC4885 — position and weather

sailwx.info

Track history (hours):
 
Tides and Currents Weather Stations Pressure Air Temp Water Temp Dewpoint Dewpoint Depression Visibility Wind Speed Wind Dir Waves Ship Positions

Maria Del Carmen IV

Last reported at 2018-Jun-19 16:02 UTC. Time now 2018-Jun-21 14:27 UTC.
Position N 09°13' W 079°55'.

Length 121 m; draft 5.4 m.

Type: Tanker. MMSI: 735058041.

Date/timePositionNaut miles runAvg speedWind from/ knotsBaromVisibWave heightAir tempDewpointWater temp
2018-Jun-19 16:02N 09°13' W 079°55'0 8.4
2018-Jun-19 16:00N 09°13' W 079°55'3 3.9
2018-Jun-19 15:18N 09°16' W 079°55'1 2.1
2018-Jun-19 14:59N 09°16' W 079°55'0 0.3
2018-Jun-19 14:29N 09°16' W 079°55'0 0.3
2018-Jun-19 13:56N 09°17' W 079°55'0 0.5
2018-Jun-19 13:29N 09°17' W 079°55'0 0.5
2018-Jun-19 12:59N 09°17' W 079°55'1 2.7
2018-Jun-19 12:29N 09°18' W 079°55'3 5.5
2018-Jun-19 12:00N 09°21' W 079°55'2 2.8
2018-Jun-19 11:26N 09°23' W 079°55'0 0.0
2018-Jun-19 10:59N 09°23' W 079°55'0 0.0
2018-Jun-19 10:29N 09°23' W 079°55'0 0.0
2018-Jun-19 09:59N 09°23' W 079°55'0 0.0
2018-Jun-19 09:29N 09°23' W 079°55'0 0.1
2018-Jun-19 08:59N 09°23' W 079°55'0 0.0
2018-Jun-19 08:29N 09°23' W 079°54'0 0.0
2018-Jun-19 07:59N 09°23' W 079°54'0 0.0
2018-Jun-19 07:29N 09°23' W 079°54'0 0.1
2018-Jun-19 06:59N 09°22' W 079°54'0 0.2
2018-Jun-19 06:29N 09°22' W 079°55'0 0.1
2018-Jun-19 05:59N 09°22' W 079°54'0 0.1
2018-Jun-19 05:29N 09°22' W 079°54'0 0.0
2018-Jun-19 04:59N 09°22' W 079°54'0 0.0
2018-Jun-19 04:29N 09°23' W 079°54'0 0.0
2018-Jun-19 03:59N 09°22' W 079°54'0 0.0
2018-Jun-19 03:29N 09°22' W 079°54'0 0.0
2018-Jun-19 02:59N 09°22' W 079°54'0 0.0
2018-Jun-19 02:29N 09°22' W 079°54'0 0.0
2018-Jun-19 01:56N 09°22' W 079°54'0 0.0
2018-Jun-19 01:20N 09°22' W 079°54'0 0.0
2018-Jun-19 00:59N 09°22' W 079°54'0 0.0
2018-Jun-19 00:29N 09°23' W 079°54'0 0.0
2018-Jun-18 23:56N 09°22' W 079°54'0 0.0
2018-Jun-18 23:26N 09°22' W 079°54'0 0.2
2018-Jun-18 22:59N 09°23' W 079°55'0 0.0
2018-Jun-18 22:29N 09°22' W 079°55'0 0.0
2018-Jun-18 21:59N 09°22' W 079°55'0 0.0
2018-Jun-18 21:29N 09°22' W 079°55'0 0.0
2018-Jun-18 20:59N 09°22' W 079°55'0 0.0
2018-Jun-18 20:29N 09°22' W 079°55'0 0.2
2018-Jun-18 19:59N 09°22' W 079°54'0 0.0
2018-Jun-18 19:29N 09°22' W 079°54'0 0.0
2018-Jun-18 18:59N 09°22' W 079°54'0 0.1
2018-Jun-18 18:29N 09°22' W 079°54'0 0.0
2018-Jun-18 17:59N 09°22' W 079°54'0 0.0
2018-Jun-18 17:29N 09°22' W 079°54'0 0.0
2018-Jun-18 16:59N 09°22' W 079°54'0 0.0
2018-Jun-18 16:29N 09°22' W 079°54'0 0.0
2018-Jun-18 15:53N 09°22' W 079°54'0 0.0
2018-Jun-18 15:29N 09°22' W 079°55'0 0.0
2018-Jun-18 14:56N 09°22' W 079°55'0 0.0
2018-Jun-18 14:29N 09°22' W 079°55'0 0.0
2018-Jun-18 13:59N 09°22' W 079°55'0 0.1
2018-Jun-18 13:29N 09°22' W 079°54'0 0.1
2018-Jun-18 12:56N 09°23' W 079°54'0 0.0
2018-Jun-18 12:29N 09°23' W 079°54'0 0.0
2018-Jun-18 11:59N 09°23' W 079°54'0 0.0
2018-Jun-18 11:23N 09°23' W 079°54'0 0.0
2018-Jun-18 10:59N 09°23' W 079°54'0 0.1
2018-Jun-18 10:29N 09°23' W 079°54'0 0.0
2018-Jun-18 09:59N 09°23' W 079°54'0 0.1
2018-Jun-18 09:29N 09°22' W 079°54'0 0.2
2018-Jun-18 08:59N 09°23' W 079°54'0 0.0
2018-Jun-18 08:23N 09°23' W 079°54'0 0.0
2018-Jun-18 07:59N 09°23' W 079°54'0 0.0
2018-Jun-18 07:29N 09°23' W 079°54'0 0.0
2018-Jun-18 06:59N 09°23' W 079°54'0 0.0
2018-Jun-18 06:29N 09°23' W 079°54'0 0.0
2018-Jun-18 05:59N 09°23' W 079°54'0 0.2
2018-Jun-18 05:29N 09°22' W 079°55'0 0.1
2018-Jun-18 04:59N 09°22' W 079°55'0 0.0
2018-Jun-18 04:29N 09°22' W 079°55'0 0.1
2018-Jun-18 03:59N 09°22' W 079°55'0 0.1
2018-Jun-18 03:29N 09°22' W 079°54'0 0.0
2018-Jun-18 02:56N 09°22' W 079°54'0 0.1
2018-Jun-18 02:29N 09°22' W 079°54'0 0.0
2018-Jun-18 01:59N 09°22' W 079°54'0 0.0
2018-Jun-18 01:29N 09°22' W 079°54'0 0.2
2018-Jun-18 00:59N 09°22' W 079°55'0 0.2
2018-Jun-18 00:29N 09°22' W 079°55'0 0.5
2018-Jun-17 23:59N 09°23' W 079°55'1 1.2
2018-Jun-17 23:30N 09°23' W 079°55'2 4.6
2018-Jun-17 22:59N 09°25' W 079°57'0 0.4
2018-Jun-17 22:25N 09°25' W 079°57'0 0.0
2018-Jun-17 21:55N 09°25' W 079°57'0 0.0
2018-Jun-17 21:25N 09°25' W 079°57'0 0.0
2018-Jun-17 17:31N 09°25' W 079°57'0 0.0
2018-Jun-17 17:19N 09°25' W 079°57'0 0.0
2018-Jun-17 15:25N 09°25' W 079°57'0 0.0
2018-Jun-17 14:58N 09°25' W 079°57'0 0.0
2018-Jun-17 14:28N 09°25' W 079°57'0 0.0
2018-Jun-17 13:58N 09°25' W 079°57'0 0.0
2018-Jun-17 13:16N 09°25' W 079°57'0 0.0
2018-Jun-17 12:58N 09°25' W 079°57'0 0.0
2018-Jun-17 12:28N 09°25' W 079°57'0 0.0
2018-Jun-17 11:58N 09°25' W 079°57'0 0.0
2018-Jun-17 11:28N 09°25' W 079°57'0 0.0
2018-Jun-17 10:07N 09°25' W 079°57'0 0.0
2018-Jun-17 09:52N 09°25' W 079°57'0 0.0
2018-Jun-17 09:28N 09°25' W 079°57'0 0.0
2018-Jun-17 08:49N 09°25' W 079°57'0 0.0
2018-Jun-17 08:28N 09°25' W 079°57'0 0.0
2018-Jun-17 07:58N 09°25' W 079°57'0 0.0
2018-Jun-17 05:43N 09°25' W 079°57'0 0.0
2018-Jun-17 05:25N 09°25' W 079°57'0 0.1
2018-Jun-17 04:58N 09°25' W 079°57'3 5.5
2018-Jun-17 04:31N 09°25' W 079°54'611.1
2018-Jun-17 04:00N 09°30' W 079°53'611.0
2018-Jun-17 03:26N 09°36' W 079°52'  
Track history (hours):
 
Tides and Currents Weather Stations Pressure Air Temp Water Temp Dewpoint Dewpoint Depression Visibility Wind Speed Wind Dir Waves Ship Positions

Maria Del Carmen IV

Last reported at 2018-Jun-19 16:02 UTC. Time now 2018-Jun-21 14:27 UTC.
Position N 09°13' W 079°55'.

Length 121 m; draft 5.4 m.

Type: Tanker. MMSI: 735058041.

Date/timePositionNaut miles runAvg speedWind from/ knotsBaromVisibWave heightAir tempDewpointWater temp
2018-Jun-19 16:02N 09°13' W 079°55'0 8.4
2018-Jun-19 16:00N 09°13' W 079°55'3 3.9
2018-Jun-19 15:18N 09°16' W 079°55'1 2.1
2018-Jun-19 14:59N 09°16' W 079°55'0 0.3
2018-Jun-19 14:29N 09°16' W 079°55'0 0.3
2018-Jun-19 13:56N 09°17' W 079°55'0 0.5
2018-Jun-19 13:29N 09°17' W 079°55'0 0.5
2018-Jun-19 12:59N 09°17' W 079°55'1 2.7
2018-Jun-19 12:29N 09°18' W 079°55'3 5.5
2018-Jun-19 12:00N 09°21' W 079°55'2 2.8
2018-Jun-19 11:26N 09°23' W 079°55'0 0.0
2018-Jun-19 10:59N 09°23' W 079°55'0 0.0
2018-Jun-19 10:29N 09°23' W 079°55'0 0.0
2018-Jun-19 09:59N 09°23' W 079°55'0 0.0
2018-Jun-19 09:29N 09°23' W 079°55'0 0.1
2018-Jun-19 08:59N 09°23' W 079°55'0 0.0
2018-Jun-19 08:29N 09°23' W 079°54'0 0.0
2018-Jun-19 07:59N 09°23' W 079°54'0 0.0
2018-Jun-19 07:29N 09°23' W 079°54'0 0.1
2018-Jun-19 06:59N 09°22' W 079°54'0 0.2
2018-Jun-19 06:29N 09°22' W 079°55'0 0.1
2018-Jun-19 05:59N 09°22' W 079°54'0 0.1
2018-Jun-19 05:29N 09°22' W 079°54'0 0.0
2018-Jun-19 04:59N 09°22' W 079°54'0 0.0
2018-Jun-19 04:29N 09°23' W 079°54'0 0.0
2018-Jun-19 03:59N 09°22' W 079°54'0 0.0
2018-Jun-19 03:29N 09°22' W 079°54'0 0.0
2018-Jun-19 02:59N 09°22' W 079°54'0 0.0
2018-Jun-19 02:29N 09°22' W 079°54'0 0.0
2018-Jun-19 01:56N 09°22' W 079°54'0 0.0
2018-Jun-19 01:20N 09°22' W 079°54'0 0.0
2018-Jun-19 00:59N 09°22' W 079°54'0 0.0
2018-Jun-19 00:29N 09°23' W 079°54'0 0.0
2018-Jun-18 23:56N 09°22' W 079°54'0 0.0
2018-Jun-18 23:26N 09°22' W 079°54'0 0.2
2018-Jun-18 22:59N 09°23' W 079°55'0 0.0
2018-Jun-18 22:29N 09°22' W 079°55'0 0.0
2018-Jun-18 21:59N 09°22' W 079°55'0 0.0
2018-Jun-18 21:29N 09°22' W 079°55'0 0.0
2018-Jun-18 20:59N 09°22' W 079°55'0 0.0
2018-Jun-18 20:29N 09°22' W 079°55'0 0.2
2018-Jun-18 19:59N 09°22' W 079°54'0 0.0
2018-Jun-18 19:29N 09°22' W 079°54'0 0.0
2018-Jun-18 18:59N 09°22' W 079°54'0 0.1
2018-Jun-18 18:29N 09°22' W 079°54'0 0.0
2018-Jun-18 17:59N 09°22' W 079°54'0 0.0
2018-Jun-18 17:29N 09°22' W 079°54'0 0.0
2018-Jun-18 16:59N 09°22' W 079°54'0 0.0
2018-Jun-18 16:29N 09°22' W 079°54'0 0.0
2018-Jun-18 15:53N 09°22' W 079°54'0 0.0
2018-Jun-18 15:29N 09°22' W 079°55'0 0.0
2018-Jun-18 14:56N 09°22' W 079°55'0 0.0
2018-Jun-18 14:29N 09°22' W 079°55'0 0.0
2018-Jun-18 13:59N 09°22' W 079°55'0 0.1
2018-Jun-18 13:29N 09°22' W 079°54'0 0.1
2018-Jun-18 12:56N 09°23' W 079°54'0 0.0
2018-Jun-18 12:29N 09°23' W 079°54'0 0.0
2018-Jun-18 11:59N 09°23' W 079°54'0 0.0
2018-Jun-18 11:23N 09°23' W 079°54'0 0.0
2018-Jun-18 10:59N 09°23' W 079°54'0 0.1
2018-Jun-18 10:29N 09°23' W 079°54'0 0.0
2018-Jun-18 09:59N 09°23' W 079°54'0 0.1
2018-Jun-18 09:29N 09°22' W 079°54'0 0.2
2018-Jun-18 08:59N 09°23' W 079°54'0 0.0
2018-Jun-18 08:23N 09°23' W 079°54'0 0.0
2018-Jun-18 07:59N 09°23' W 079°54'0 0.0
2018-Jun-18 07:29N 09°23' W 079°54'0 0.0
2018-Jun-18 06:59N 09°23' W 079°54'0 0.0
2018-Jun-18 06:29N 09°23' W 079°54'0 0.0
2018-Jun-18 05:59N 09°23' W 079°54'0 0.2
2018-Jun-18 05:29N 09°22' W 079°55'0 0.1
2018-Jun-18 04:59N 09°22' W 079°55'0 0.0
2018-Jun-18 04:29N 09°22' W 079°55'0 0.1
2018-Jun-18 03:59N 09°22' W 079°55'0 0.1
2018-Jun-18 03:29N 09°22' W 079°54'0 0.0
2018-Jun-18 02:56N 09°22' W 079°54'0 0.1
2018-Jun-18 02:29N 09°22' W 079°54'0 0.0
2018-Jun-18 01:59N 09°22' W 079°54'0 0.0
2018-Jun-18 01:29N 09°22' W 079°54'0 0.2
2018-Jun-18 00:59N 09°22' W 079°55'0 0.2
2018-Jun-18 00:29N 09°22' W 079°55'0 0.5
2018-Jun-17 23:59N 09°23' W 079°55'1 1.2
2018-Jun-17 23:30N 09°23' W 079°55'2 4.6
2018-Jun-17 22:59N 09°25' W 079°57'0 0.4
2018-Jun-17 22:25N 09°25' W 079°57'0 0.0
2018-Jun-17 21:55N 09°25' W 079°57'0 0.0
2018-Jun-17 21:25N 09°25' W 079°57'0 0.0
2018-Jun-17 17:31N 09°25' W 079°57'0 0.0
2018-Jun-17 17:19N 09°25' W 079°57'0 0.0
2018-Jun-17 15:25N 09°25' W 079°57'0 0.0
2018-Jun-17 14:58N 09°25' W 079°57'0 0.0
2018-Jun-17 14:28N 09°25' W 079°57'0 0.0
2018-Jun-17 13:58N 09°25' W 079°57'0 0.0
2018-Jun-17 13:16N 09°25' W 079°57'0 0.0
2018-Jun-17 12:58N 09°25' W 079°57'0 0.0
2018-Jun-17 12:28N 09°25' W 079°57'0 0.0
2018-Jun-17 11:58N 09°25' W 079°57'0 0.0
2018-Jun-17 11:28N 09°25' W 079°57'0 0.0
2018-Jun-17 10:07N 09°25' W 079°57'0 0.0
2018-Jun-17 09:52N 09°25' W 079°57'0 0.0
2018-Jun-17 09:28N 09°25' W 079°57'0 0.0
2018-Jun-17 08:49N 09°25' W 079°57'0 0.0
2018-Jun-17 08:28N 09°25' W 079°57'0 0.0
2018-Jun-17 07:58N 09°25' W 079°57'0 0.0
2018-Jun-17 05:43N 09°25' W 079°57'0 0.0
2018-Jun-17 05:25N 09°25' W 079°57'0 0.1
2018-Jun-17 04:58N 09°25' W 079°57'3 5.5
2018-Jun-17 04:31N 09°25' W 079°54'611.1
2018-Jun-17 04:00N 09°30' W 079°53'611.0
2018-Jun-17 03:26N 09°36' W 079°52'  

Dump ship's entire track history